sensor_id;sensor_type;location;lat;lon;timestamp;pressure;altitude;pressure_sealevel;temperature;humidity
21574;BME280;10948;48.706;9.258;2023-01-26T00:02:11;98341.88;;;2.04;100.00
21574;BME280;10948;48.706;9.258;2023-01-26T00:04:37;98339.53;;;1.92;100.00
21574;BME280;10948;48.706;9.258;2023-01-26T00:07:02;98338.78;;;1.87;100.00
21574;BME280;10948;48.706;9.258;2023-01-26T00:09:28;98330.97;;;1.93;100.00
21574;BME280;10948;48.706;9.258;2023-01-26T00:11:53;98328.91;;;2.13;100.00
21574;BME280;10948;48.706;9.258;2023-01-26T00:14:18;98327.28;;;2.06;100.00
21574;BME280;10948;48.706;9.258;2023-01-26T00:16:43;98324.38;;;2.25;100.00
21574;BME280;10948;48.706;9.258;2023-01-26T00:19:09;98316.53;;;1.86;100.00
21574;BME280;10948;48.706;9.258;2023-01-26T00:21:34;98322.34;;;1.95;100.00
21574;BME280;10948;48.706;9.258;2023-01-26T00:23:59;98319.06;;;1.89;100.00
21574;BME280;10948;48.706;9.258;2023-01-26T00:26:25;98318.78;;;2.04;100.00
21574;BME280;10948;48.706;9.258;2023-01-26T00:28:51;98311.97;;;2.03;100.00
21574;BME280;10948;48.706;9.258;2023-01-26T00:31:21;98306.94;;;1.97;100.00
21574;BME280;10948;48.706;9.258;2023-01-26T00:33:46;98301.81;;;1.97;100.00
21574;BME280;10948;48.706;9.258;2023-01-26T00:36:12;98295.16;;;1.87;100.00
21574;BME280;10948;48.706;9.258;2023-01-26T00:38:37;98285.84;;;1.81;100.00
21574;BME280;10948;48.706;9.258;2023-01-26T00:41:03;98279.41;;;2.05;100.00
21574;BME280;10948;48.706;9.258;2023-01-26T00:43:28;98292.50;;;1.91;100.00
21574;BME280;10948;48.706;9.258;2023-01-26T00:45:53;98278.00;;;1.89;100.00
21574;BME280;10948;48.706;9.258;2023-01-26T00:48:19;98284.25;;;1.74;100.00
21574;BME280;10948;48.706;9.258;2023-01-26T00:50:44;98283.31;;;1.80;100.00
21574;BME280;10948;48.706;9.258;2023-01-26T00:53:09;98277.91;;;1.95;100.00
21574;BME280;10948;48.706;9.258;2023-01-26T00:55:35;98267.75;;;1.89;100.00
21574;BME280;10948;48.706;9.258;2023-01-26T00:58:01;98272.88;;;1.89;100.00
21574;BME280;10948;48.706;9.258;2023-01-26T01:00:26;98261.72;;;1.91;100.00
21574;BME280;10948;48.706;9.258;2023-01-26T01:02:52;98274.97;;;1.66;100.00
21574;BME280;10948;48.706;9.258;2023-01-26T01:05:17;98272.88;;;1.89;100.00
21574;BME280;10948;48.706;9.258;2023-01-26T01:07:43;98269.63;;;1.81;100.00
21574;BME280;10948;48.706;9.258;2023-01-26T01:10:08;98267.84;;;1.83;100.00
21574;BME280;10948;48.706;9.258;2023-01-26T01:12:33;98262.72;;;1.83;100.00
21574;BME280;10948;48.706;9.258;2023-01-26T01:14:59;98256.97;;;1.70;100.00
21574;BME280;10948;48.706;9.258;2023-01-26T01:17:24;98265.28;;;1.84;100.00
21574;BME280;10948;48.706;9.258;2023-01-26T01:19:49;98265.19;;;1.89;100.00
21574;BME280;10948;48.706;9.258;2023-01-26T01:22:15;98261.06;;;1.80;100.00
21574;BME280;10948;48.706;9.258;2023-01-26T01:24:40;98271.41;;;1.76;100.00
21574;BME280;10948;48.706;9.258;2023-01-26T01:27:09;98258.41;;;1.85;100.00
21574;BME280;10948;48.706;9.258;2023-01-26T01:29:34;98273.09;;;1.77;100.00
21574;BME280;10948;48.706;9.258;2023-01-26T01:32:00;98261.94;;;1.79;100.00
21574;BME280;10948;48.706;9.258;2023-01-26T01:34:25;98269.72;;;1.75;100.00
21574;BME280;10948;48.706;9.258;2023-01-26T01:36:50;98263.59;;;1.82;100.00
21574;BME280;10948;48.706;9.258;2023-01-26T01:39:16;98262.91;;;1.74;100.00
21574;BME280;10948;48.706;9.258;2023-01-26T01:41:41;98255.22;;;1.72;100.00
21574;BME280;10948;48.706;9.258;2023-01-26T01:44:24;98259.72;;;1.60;100.00
21574;BME280;10948;48.706;9.258;2023-01-26T01:49:25;98262.16;;;1.67;100.00
21574;BME280;10948;48.706;9.258;2023-01-26T01:51:56;98248.41;;;1.71;100.00
21574;BME280;10948;48.706;9.258;2023-01-26T01:54:31;98244.97;;;1.71;100.00
21574;BME280;10948;48.706;9.258;2023-01-26T01:56:59;98246.47;;;1.82;100.00
21574;BME280;10948;48.706;9.258;2023-01-26T01:59:26;98251.81;;;1.72;100.00
21574;BME280;10948;48.706;9.258;2023-01-26T02:01:51;98245.75;;;1.76;100.00
21574;BME280;10948;48.706;9.258;2023-01-26T02:04:17;98244.19;;;1.69;100.00
21574;BME280;10948;48.706;9.258;2023-01-26T02:06:47;98252.00;;;1.61;100.00
21574;BME280;10948;48.706;9.258;2023-01-26T02:09:13;98243.16;;;1.77;100.00
21574;BME280;10948;48.706;9.258;2023-01-26T02:11:58;98241.50;;;1.76;100.00
21574;BME280;10948;48.706;9.258;2023-01-26T02:14:24;98237.28;;;1.71;100.00
21574;BME280;10948;48.706;9.258;2023-01-26T02:16:50;98228.69;;;1.75;100.00
21574;BME280;10948;48.706;9.258;2023-01-26T02:19:18;98231.84;;;1.40;100.00
21574;BME280;10948;48.706;9.258;2023-01-26T02:21:45;98227.91;;;1.70;100.00
21574;BME280;10948;48.706;9.258;2023-01-26T02:24:16;98223.84;;;1.60;100.00
21574;BME280;10948;48.706;9.258;2023-01-26T02:26:44;98233.06;;;1.68;100.00
21574;BME280;10948;48.706;9.258;2023-01-26T02:29:09;98222.63;;;1.30;100.00
21574;BME280;10948;48.706;9.258;2023-01-26T02:31:36;98222.28;;;1.50;100.00
21574;BME280;10948;48.706;9.258;2023-01-26T02:34:02;98218.25;;;1.84;100.00
21574;BME280;10948;48.706;9.258;2023-01-26T02:36:28;98220.31;;;1.64;100.00
21574;BME280;10948;48.706;9.258;2023-01-26T02:38:56;98220.75;;;1.40;100.00
21574;BME280;10948;48.706;9.258;2023-01-26T02:41:23;98206.88;;;1.51;100.00
21574;BME280;10948;48.706;9.258;2023-01-26T02:44:07;98213.59;;;1.57;100.00
21574;BME280;10948;48.706;9.258;2023-01-26T02:46:33;98210.25;;;1.55;100.00
21574;BME280;10948;48.706;9.258;2023-01-26T02:48:59;98210.03;;;1.67;100.00
21574;BME280;10948;48.706;9.258;2023-01-26T02:51:42;98211.81;;;1.62;100.00
21574;BME280;10948;48.706;9.258;2023-01-26T02:54:08;98212.63;;;1.64;100.00
21574;BME280;10948;48.706;9.258;2023-01-26T02:56:33;98210.13;;;1.61;100.00
21574;BME280;10948;48.706;9.258;2023-01-26T02:59:03;98201.66;;;1.56;100.00
21574;BME280;10948;48.706;9.258;2023-01-26T03:01:29;98205.25;;;1.46;100.00
21574;BME280;10948;48.706;9.258;2023-01-26T03:03:54;98203.19;;;1.66;100.00
21574;BME280;10948;48.706;9.258;2023-01-26T03:06:19;98199.31;;;1.42;100.00
21574;BME280;10948;48.706;9.258;2023-01-26T03:08:44;98200.25;;;1.40;100.00
21574;BME280;10948;48.706;9.258;2023-01-26T03:11:13;98200.88;;;1.52;100.00
21574;BME280;10948;48.706;9.258;2023-01-26T03:13:38;98191.50;;;1.50;100.00
21574;BME280;10948;48.706;9.258;2023-01-26T03:16:06;98195.34;;;1.28;100.00
21574;BME280;10948;48.706;9.258;2023-01-26T03:18:33;98184.88;;;1.40;100.00
21574;BME280;10948;48.706;9.258;2023-01-26T03:21:18;98182.91;;;1.54;100.00
21574;BME280;10948;48.706;9.258;2023-01-26T03:24:01;98185.69;;;1.40;100.00
21574;BME280;10948;48.706;9.258;2023-01-26T03:26:45;98181.16;;;1.56;100.00
21574;BME280;10948;48.706;9.258;2023-01-26T03:29:29;98175.91;;;1.62;100.00
21574;BME280;10948;48.706;9.258;2023-01-26T03:31:55;98168.44;;;1.51;100.00
21574;BME280;10948;48.706;9.258;2023-01-26T03:34:20;98168.53;;;1.45;100.00
21574;BME280;10948;48.706;9.258;2023-01-26T03:36:46;98164.19;;;1.49;100.00
21574;BME280;10948;48.706;9.258;2023-01-26T03:39:11;98172.69;;;1.51;100.00
21574;BME280;10948;48.706;9.258;2023-01-26T03:41:57;98169.19;;;1.56;100.00
21574;BME280;10948;48.706;9.258;2023-01-26T03:44:40;98167.66;;;1.45;100.00
21574;BME280;10948;48.706;9.258;2023-01-26T03:47:24;98170.19;;;1.48;100.00
21574;BME280;10948;48.706;9.258;2023-01-26T03:50:11;98171.66;;;1.61;100.00
21574;BME280;10948;48.706;9.258;2023-01-26T03:52:54;98176.25;;;1.44;100.00
21574;BME280;10948;48.706;9.258;2023-01-26T03:55:38;98175.84;;;1.65;100.00
21574;BME280;10948;48.706;9.258;2023-01-26T03:58:22;98178.66;;;1.53;100.00
21574;BME280;10948;48.706;9.258;2023-01-26T04:00:48;98174.22;;;1.61;100.00
21574;BME280;10948;48.706;9.258;2023-01-26T04:03:14;98177.81;;;1.51;100.00
21574;BME280;10948;48.706;9.258;2023-01-26T04:05:57;98174.22;;;1.61;100.00
21574;BME280;10948;48.706;9.258;2023-01-26T04:08:42;98170.03;;;1.55;100.00
21574;BME280;10948;48.706;9.258;2023-01-26T04:11:07;98174.63;;;1.40;100.00
21574;BME280;10948;48.706;9.258;2023-01-26T04:13:32;98172.66;;;1.54;100.00
21574;BME280;10948;48.706;9.258;2023-01-26T04:16:16;98175.91;;;1.62;100.00
21574;BME280;10948;48.706;9.258;2023-01-26T04:19:00;98180.28;;;1.55;100.00
21574;BME280;10948;48.706;9.258;2023-01-26T04:21:44;98164.81;;;1.61;100.00
21574;BME280;10948;48.706;9.258;2023-01-26T04:24:09;98176.59;;;1.71;100.00
21574;BME280;10948;48.706;9.258;2023-01-26T04:26:38;98165.88;;;1.50;100.00
21574;BME280;10948;48.706;9.258;2023-01-26T04:29:05;98166.78;;;1.47;100.00
21574;BME280;10948;48.706;9.258;2023-01-26T04:31:30;98160.41;;;1.68;100.00
21574;BME280;10948;48.706;9.258;2023-01-26T04:33:56;98162.03;;;1.72;100.00
21574;BME280;10948;48.706;9.258;2023-01-26T04:36:22;98162.00;;;1.75;100.00
21574;BME280;10948;48.706;9.258;2023-01-26T04:38:47;98162.41;;;1.54;100.00
21574;BME280;10948;48.706;9.258;2023-01-26T04:41:13;98163.97;;;1.61;100.00
21574;BME280;10948;48.706;9.258;2023-01-26T04:43:38;98152.28;;;1.45;100.00
21574;BME280;10948;48.706;9.258;2023-01-26T04:46:05;98153.81;;;1.55;100.00
21574;BME280;10948;48.706;9.258;2023-01-26T04:48:31;98150.31;;;1.59;100.00
21574;BME280;10948;48.706;9.258;2023-01-26T04:50:58;98153.72;;;1.61;100.00
21574;BME280;10948;48.706;9.258;2023-01-26T04:53:23;98153.66;;;1.64;100.00
21574;BME280;10948;48.706;9.258;2023-01-26T04:55:48;98136.00;;;1.49;100.00
21574;BME280;10948;48.706;9.258;2023-01-26T04:58:14;98138.16;;;1.70;100.00
21574;BME280;10948;48.706;9.258;2023-01-26T05:00:40;98143.47;;;1.61;100.00
21574;BME280;10948;48.706;9.258;2023-01-26T05:03:05;98142.88;;;1.47;100.00
21574;BME280;10948;48.706;9.258;2023-01-26T05:05:34;98147.06;;;1.51;100.00
21574;BME280;10948;48.706;9.258;2023-01-26T05:07:59;98146.13;;;1.56;100.00
21574;BME280;10948;48.706;9.258;2023-01-26T05:10:25;98140.81;;;1.65;100.00
21574;BME280;10948;48.706;9.258;2023-01-26T05:12:50;98142.41;;;1.71;100.00
21574;BME280;10948;48.706;9.258;2023-01-26T05:15:15;98141.47;;;1.75;100.00
21574;BME280;10948;48.706;9.258;2023-01-26T05:17:40;98141.63;;;1.66;100.00
21574;BME280;10948;48.706;9.258;2023-01-26T05:20:06;98141.88;;;1.54;100.00
21574;BME280;10948;48.706;9.258;2023-01-26T05:22:31;98147.22;;;1.42;100.00
21574;BME280;10948;48.706;9.258;2023-01-26T05:24:56;98140.53;;;1.35;100.00
21574;BME280;10948;48.706;9.258;2023-01-26T05:27:22;98145.28;;;1.54;100.00
21574;BME280;10948;48.706;9.258;2023-01-26T05:29:47;98140.34;;;1.44;100.00
21574;BME280;10948;48.706;9.258;2023-01-26T05:32:13;98146.25;;;1.47;100.00
21574;BME280;10948;48.706;9.258;2023-01-26T05:34:39;98146.34;;;1.43;100.00
21574;BME280;10948;48.706;9.258;2023-01-26T05:37:04;98154.81;;;1.48;100.00
21574;BME280;10948;48.706;9.258;2023-01-26T05:39:29;98150.56;;;1.47;100.00
21574;BME280;10948;48.706;9.258;2023-01-26T05:41:54;98150.69;;;1.41;100.00
21574;BME280;10948;48.706;9.258;2023-01-26T05:44:21;98149.69;;;1.48;100.00
21574;BME280;10948;48.706;9.258;2023-01-26T05:46:46;98158.84;;;1.61;100.00
21574;BME280;10948;48.706;9.258;2023-01-26T05:49:11;98154.91;;;1.43;100.00
21574;BME280;10948;48.706;9.258;2023-01-26T05:51:36;98151.72;;;1.29;100.00
21574;BME280;10948;48.706;9.258;2023-01-26T05:54:02;98150.88;;;1.29;100.00
21574;BME280;10948;48.706;9.258;2023-01-26T05:56:28;98157.31;;;1.51;100.00
21574;BME280;10948;48.706;9.258;2023-01-26T05:58:53;98158.88;;;1.58;100.00
21574;BME280;10948;48.706;9.258;2023-01-26T06:01:18;98152.19;;;1.51;100.00
21574;BME280;10948;48.706;9.258;2023-01-26T06:03:43;98153.97;;;1.46;100.00
21574;BME280;10948;48.706;9.258;2023-01-26T06:06:08;98151.41;;;1.46;100.00
21574;BME280;10948;48.706;9.258;2023-01-26T06:08:34;98159.34;;;1.34;100.00
21574;BME280;10948;48.706;9.258;2023-01-26T06:10:59;98162.50;;;1.48;100.00
21574;BME280;10948;48.706;9.258;2023-01-26T06:13:25;98165.47;;;1.25;100.00
21574;BME280;10948;48.706;9.258;2023-01-26T06:15:50;98155.94;;;1.32;100.00
21574;BME280;10948;48.706;9.258;2023-01-26T06:18:15;98159.19;;;1.43;100.00
21574;BME280;10948;48.706;9.258;2023-01-26T06:20:40;98153.97;;;1.46;100.00
21574;BME280;10948;48.706;9.258;2023-01-26T06:23:06;98157.50;;;1.42;100.00
21574;BME280;10948;48.706;9.258;2023-01-26T06:25:35;98160.97;;;1.38;100.00
21574;BME280;10948;48.706;9.258;2023-01-26T06:28:02;98157.69;;;1.30;100.00
21574;BME280;10948;48.706;9.258;2023-01-26T06:30:27;98157.72;;;1.28;100.00
21574;BME280;10948;48.706;9.258;2023-01-26T06:32:53;98160.63;;;1.10;100.00
21574;BME280;10948;48.706;9.258;2023-01-26T06:35:18;98157.53;;;1.39;100.00
21574;BME280;10948;48.706;9.258;2023-01-26T06:37:43;98156.59;;;1.44;100.00
21574;BME280;10948;48.706;9.258;2023-01-26T06:40:10;98166.19;;;1.32;100.00
21574;BME280;10948;48.706;9.258;2023-01-26T06:42:35;98165.47;;;1.25;100.00
21574;BME280;10948;48.706;9.258;2023-01-26T06:45:00;98163.91;;;1.15;100.00
21574;BME280;10948;48.706;9.258;2023-01-26T06:47:26;98161.13;;;1.30;100.00
21574;BME280;10948;48.706;9.258;2023-01-26T06:49:51;98159.34;;;1.34;100.00
21574;BME280;10948;48.706;9.258;2023-01-26T06:52:25;98157.81;;;1.24;100.00
21574;BME280;10948;48.706;9.258;2023-01-26T06:54:52;98163.00;;;1.21;100.00
21574;BME280;10948;48.706;9.258;2023-01-26T06:57:17;98156.88;;;1.28;100.00
21574;BME280;10948;48.706;9.258;2023-01-26T06:59:43;98158.47;;;1.35;100.00
21574;BME280;10948;48.706;9.258;2023-01-26T07:02:18;98161.25;;;1.23;100.00
21574;BME280;10948;48.706;9.258;2023-01-26T07:04:44;98159.44;;;1.28;100.00
21574;BME280;10948;48.706;9.258;2023-01-26T07:07:09;98164.06;;;1.08;100.00
21574;BME280;10948;48.706;9.258;2023-01-26T07:09:34;98155.38;;;1.16;100.00
21574;BME280;10948;48.706;9.258;2023-01-26T07:11:59;98163.00;;;1.21;100.00
21574;BME280;10948;48.706;9.258;2023-01-26T07:14:24;98167.75;;;1.40;100.00
21574;BME280;10948;48.706;9.258;2023-01-26T07:16:50;98168.13;;;1.21;100.00
21574;BME280;10948;48.706;9.258;2023-01-26T07:19:15;98161.19;;;1.26;100.00
21574;BME280;10948;48.706;9.258;2023-01-26T07:21:40;98165.78;;;1.06;100.00
21574;BME280;10948;48.706;9.258;2023-01-26T07:24:07;98169.81;;;1.22;100.00
21574;BME280;10948;48.706;9.258;2023-01-26T07:26:32;98171.41;;;1.26;100.00
21574;BME280;10948;48.706;9.258;2023-01-26T07:28:57;98181.69;;;1.26;100.00
21574;BME280;10948;48.706;9.258;2023-01-26T07:31:22;98176.72;;;1.17;100.00
21574;BME280;10948;48.706;9.258;2023-01-26T07:33:48;98177.41;;;1.28;100.00
21574;BME280;10948;48.706;9.258;2023-01-26T07:36:13;98183.44;;;1.24;100.00
21574;BME280;10948;48.706;9.258;2023-01-26T07:38:39;98176.50;;;1.29;100.00
21574;BME280;10948;48.706;9.258;2023-01-26T07:41:10;98185.13;;;1.25;100.00
21574;BME280;10948;48.706;9.258;2023-01-26T07:43:36;98178.50;;;1.12;100.00
21574;BME280;10948;48.706;9.258;2023-01-26T07:46:01;98178.50;;;1.12;100.00
21574;BME280;10948;48.706;9.258;2023-01-26T07:48:27;98177.31;;;1.32;100.00
21574;BME280;10948;48.706;9.258;2023-01-26T07:50:53;98179.94;;;1.28;100.00
21574;BME280;10948;48.706;9.258;2023-01-26T07:53:21;98188.66;;;1.18;100.00
21574;BME280;10948;48.706;9.258;2023-01-26T07:55:47;98181.69;;;1.26;100.00
21574;BME280;10948;48.706;9.258;2023-01-26T07:58:13;98184.09;;;1.36;100.00
21574;BME280;10948;48.706;9.258;2023-01-26T08:00:38;98179.88;;;1.31;100.00
21574;BME280;10948;48.706;9.258;2023-01-26T08:03:04;98183.50;;;1.19;100.00
21574;BME280;10948;48.706;9.258;2023-01-26T08:05:30;98183.41;;;1.25;100.00
21574;BME280;10948;48.706;9.258;2023-01-26T08:07:58;98176.63;;;1.23;100.00
21574;BME280;10948;48.706;9.258;2023-01-26T08:10:24;98172.97;;;1.36;100.00
21574;BME280;10948;48.706;9.258;2023-01-26T08:12:49;98180.00;;;1.25;100.00
21574;BME280;10948;48.706;9.258;2023-01-26T08:15:14;98177.34;;;1.29;100.00
21574;BME280;10948;48.706;9.258;2023-01-26T08:17:39;98177.44;;;1.25;100.00
21574;BME280;10948;48.706;9.258;2023-01-26T08:20:05;98174.16;;;1.15;100.00
21574;BME280;10948;48.706;9.258;2023-01-26T08:22:30;98180.25;;;1.10;100.00
21574;BME280;10948;48.706;9.258;2023-01-26T08:24:55;98172.22;;;1.29;100.00
21574;BME280;10948;48.706;9.258;2023-01-26T08:27:20;98167.06;;;1.31;100.00
21574;BME280;10948;48.706;9.258;2023-01-26T08:29:47;98166.16;;;1.35;100.00
21574;BME280;10948;48.706;9.258;2023-01-26T08:32:12;98168.31;;;1.57;100.00
21574;BME280;10948;48.706;9.258;2023-01-26T08:34:37;98173.56;;;1.51;100.00
21574;BME280;10948;48.706;9.258;2023-01-26T08:37:02;98172.81;;;1.45;100.00
21574;BME280;10948;48.706;9.258;2023-01-26T08:39:28;98166.06;;;1.41;100.00
21574;BME280;10948;48.706;9.258;2023-01-26T08:41:53;98170.31;;;1.40;100.00
21574;BME280;10948;48.706;9.258;2023-01-26T08:44:19;98170.25;;;1.45;100.00
21574;BME280;10948;48.706;9.258;2023-01-26T08:46:44;98166.66;;;1.53;100.00
21574;BME280;10948;48.706;9.258;2023-01-26T08:49:10;98156.72;;;1.37;100.00
21574;BME280;10948;48.706;9.258;2023-01-26T08:51:35;98158.59;;;1.26;100.00
21574;BME280;10948;48.706;9.258;2023-01-26T08:54:00;98159.91;;;1.49;100.00
21574;BME280;10948;48.706;9.258;2023-01-26T08:56:26;98157.69;;;1.31;100.00
21574;BME280;10948;48.706;9.258;2023-01-26T08:58:51;98157.28;;;1.54;100.00
21574;BME280;10948;48.706;9.258;2023-01-26T09:01:17;98156.41;;;1.53;100.00
21574;BME280;10948;48.706;9.258;2023-01-26T09:03:42;98154.22;;;1.34;100.00
21574;BME280;10948;48.706;9.258;2023-01-26T09:06:09;98154.44;;;1.22;100.00
21574;BME280;10948;48.706;9.258;2023-01-26T09:08:34;98154.06;;;1.41;100.00
21574;BME280;10948;48.706;9.258;2023-01-26T09:11:00;98158.97;;;1.53;100.00
21574;BME280;10948;48.706;9.258;2023-01-26T09:13:25;98152.06;;;1.57;100.00
21574;BME280;10948;48.706;9.258;2023-01-26T09:15:51;98156.41;;;1.53;100.00
21574;BME280;10948;48.706;9.258;2023-01-26T09:18:16;98149.41;;;1.63;100.00
21574;BME280;10948;48.706;9.258;2023-01-26T09:20:42;98154.63;;;1.58;100.00
21574;BME280;10948;48.706;9.258;2023-01-26T09:23:07;98153.03;;;1.53;100.00
21574;BME280;10948;48.706;9.258;2023-01-26T09:25:35;98154.97;;;1.39;100.00
21574;BME280;10948;48.706;9.258;2023-01-26T09:28:02;98156.50;;;1.49;100.00
21574;BME280;10948;48.706;9.258;2023-01-26T09:30:27;98154.75;;;1.51;100.00
21574;BME280;10948;48.706;9.258;2023-01-26T09:32:56;98161.34;;;1.64;100.00
21574;BME280;10948;48.706;9.258;2023-01-26T09:35:21;98162.03;;;1.72;100.00
21574;BME280;10948;48.706;9.258;2023-01-26T09:37:46;98164.00;;;1.58;100.00
21574;BME280;10948;48.706;9.258;2023-01-26T09:40:16;98164.97;;;1.54;100.00
21574;BME280;10948;48.706;9.258;2023-01-26T09:50:27;98169.34;;;1.46;100.00
21574;BME280;10948;48.706;9.258;2023-01-26T09:52:59;98174.22;;;1.61;100.00
21574;BME280;10948;48.706;9.258;2023-01-26T09:55:25;98162.66;;;1.39;100.00
21574;BME280;10948;48.706;9.258;2023-01-26T10:00:20;98169.31;;;1.49;100.00
21574;BME280;10948;48.706;9.258;2023-01-26T10:05:30;98167.34;;;1.63;100.00
21574;BME280;10948;48.706;9.258;2023-01-26T10:07:57;98159.84;;;1.52;100.00
21574;BME280;10948;48.706;9.258;2023-01-26T10:10:28;98161.50;;;1.56;100.00
21574;BME280;10948;48.706;9.258;2023-01-26T10:12:56;98158.72;;;1.67;100.00
21574;BME280;10948;48.706;9.258;2023-01-26T10:15:28;98159.06;;;1.49;100.00
21574;BME280;10948;48.706;9.258;2023-01-26T10:17:55;98165.84;;;1.53;100.00
21574;BME280;10948;48.706;9.258;2023-01-26T10:20:32;98172.59;;;1.57;100.00
21574;BME280;10948;48.706;9.258;2023-01-26T10:23:03;98163.38;;;1.47;100.00
21574;BME280;10948;48.706;9.258;2023-01-26T10:25:36;98161.31;;;1.67;100.00
21574;BME280;10948;48.706;9.258;2023-01-26T10:28:18;98154.44;;;1.66;100.00
21574;BME280;10948;48.706;9.258;2023-01-26T10:30:45;98160.66;;;1.56;100.00
21574;BME280;10948;48.706;9.258;2023-01-26T10:33:13;98155.34;;;1.65;100.00
21574;BME280;10948;48.706;9.258;2023-01-26T10:35:39;98157.41;;;1.45;100.00
21574;BME280;10948;48.706;9.258;2023-01-26T10:38:24;98158.66;;;1.70;100.00
21574;BME280;10948;48.706;9.258;2023-01-26T10:40:49;98158.97;;;1.55;100.00
21574;BME280;10948;48.706;9.258;2023-01-26T10:43:16;98158.19;;;1.50;100.00
21574;BME280;10948;48.706;9.258;2023-01-26T10:45:45;98155.22;;;1.71;100.00
21574;BME280;10948;48.706;9.258;2023-01-26T10:48:21;98157.53;;;1.39;100.00
21574;BME280;10948;48.706;9.258;2023-01-26T10:50:51;98159.84;;;1.52;100.00
21574;BME280;10948;48.706;9.258;2023-01-26T10:53:26;98169.09;;;1.61;100.00
21574;BME280;10948;48.706;9.258;2023-01-26T10:56:00;98158.78;;;1.64;100.00
21574;BME280;10948;48.706;9.258;2023-01-26T10:58:46;98153.59;;;1.67;100.00
21574;BME280;10948;48.706;9.258;2023-01-26T11:01:12;98148.28;;;1.76;100.00
21574;BME280;10948;48.706;9.258;2023-01-26T11:03:39;98157.19;;;1.57;100.00
21574;BME280;10948;48.706;9.258;2023-01-26T11:06:14;98156.19;;;1.65;100.00
21574;BME280;10948;48.706;9.258;2023-01-26T11:08:40;98157.91;;;1.65;100.00
21574;BME280;10948;48.706;9.258;2023-01-26T11:11:06;98141.50;;;1.72;100.00
21574;BME280;10948;48.706;9.258;2023-01-26T11:13:45;98143.34;;;1.67;100.00
21574;BME280;10948;48.706;9.258;2023-01-26T11:16:19;98143.34;;;1.67;100.00
21574;BME280;10948;48.706;9.258;2023-01-26T11:33:50;98123.00;;;1.58;100.00
21574;BME280;10948;48.706;9.258;2023-01-26T11:36:45;98112.94;;;1.47;100.00
21574;BME280;10948;48.706;9.258;2023-01-26T11:44:45;98112.56;;;1.67;100.00
21574;BME280;10948;48.706;9.258;2023-01-26T12:00:57;98113.13;;;1.37;100.00
21574;BME280;10948;48.706;9.258;2023-01-26T12:05:53;98107.34;;;1.27;100.00
21574;BME280;10948;48.706;9.258;2023-01-26T12:08:25;98101.03;;;1.45;100.00
21574;BME280;10948;48.706;9.258;2023-01-26T12:13:34;98099.19;;;1.53;100.00
21574;BME280;10948;48.706;9.258;2023-01-26T12:16:04;98095.91;;;1.45;100.00
21574;BME280;10948;48.706;9.258;2023-01-26T12:18:38;98095.44;;;1.69;100.00
21574;BME280;10948;48.706;9.258;2023-01-26T12:21:07;98093.25;;;1.49;100.00
21574;BME280;10948;48.706;9.258;2023-01-26T12:26:06;98085.59;;;1.48;100.00
21574;BME280;10948;48.706;9.258;2023-01-26T12:29:38;98087.88;;;1.61;100.00
21574;BME280;10948;48.706;9.258;2023-01-26T12:34:07;98071.34;;;1.33;100.00
21574;BME280;10948;48.706;9.258;2023-01-26T12:36:58;98073.78;;;1.41;100.00
21574;BME280;10948;48.706;9.258;2023-01-26T12:39:25;98064.91;;;1.57;100.00
21574;BME280;10948;48.706;9.258;2023-01-26T12:44:38;98059.75;;;1.57;100.00
21574;BME280;10948;48.706;9.258;2023-01-26T12:49:31;98055.38;;;1.21;100.00
21574;BME280;10948;48.706;9.258;2023-01-26T12:52:00;98054.00;;;1.02;100.00
21574;BME280;10948;48.706;9.258;2023-01-26T12:54:33;98053.53;;;1.26;100.00
21574;BME280;10948;48.706;9.258;2023-01-26T12:57:01;98056.25;;;1.18;100.00
21574;BME280;10948;48.706;9.258;2023-01-26T12:59:32;98058.28;;;1.47;100.00
21574;BME280;10948;48.706;9.258;2023-01-26T13:01:59;98055.53;;;1.54;100.00
21574;BME280;10948;48.706;9.258;2023-01-26T13:04:25;98055.19;;;1.30;100.00
21574;BME280;10948;48.706;9.258;2023-01-26T13:07:03;98066.34;;;1.26;100.00
21574;BME280;10948;48.706;9.258;2023-01-26T13:15:13;98049.97;;;1.34;100.00
21574;BME280;10948;48.706;9.258;2023-01-26T13:20:14;98054.31;;;1.31;100.00
21574;BME280;10948;48.706;9.258;2023-01-26T13:22:40;98054.16;;;1.40;100.00
21574;BME280;10948;48.706;9.258;2023-01-26T13:27:56;98055.25;;;1.27;100.00
21574;BME280;10948;48.706;9.258;2023-01-26T13:35:16;98050.16;;;1.25;100.00
21574;BME280;10948;48.706;9.258;2023-01-26T13:40:30;98043.28;;;1.26;100.00
21574;BME280;10948;48.706;9.258;2023-01-26T13:43:00;98050.38;;;1.13;100.00
21574;BME280;10948;48.706;9.258;2023-01-26T13:45:44;98045.44;;;1.03;100.00
21574;BME280;10948;48.706;9.258;2023-01-26T13:48:15;98039.47;;;1.02;100.00
21574;BME280;10948;48.706;9.258;2023-01-26T13:50:42;98045.75;;;1.32;100.00
21574;BME280;10948;48.706;9.258;2023-01-26T13:55:55;98043.53;;;1.14;100.00
21574;BME280;10948;48.706;9.258;2023-01-26T13:58:21;98041.59;;;1.25;100.00
21574;BME280;10948;48.706;9.258;2023-01-26T14:00:57;98051.03;;;1.24;100.00
21574;BME280;10948;48.706;9.258;2023-01-26T14:03:22;98050.13;;;1.27;100.00
21574;BME280;10948;48.706;9.258;2023-01-26T14:05:55;98054.59;;;1.17;100.00
21574;BME280;10948;48.706;9.258;2023-01-26T14:08:21;98051.28;;;1.55;100.00
21574;BME280;10948;48.706;9.258;2023-01-26T14:10:47;98044.34;;;1.60;100.00
21574;BME280;10948;48.706;9.258;2023-01-26T14:13:15;98048.38;;;1.29;100.00
21574;BME280;10948;48.706;9.258;2023-01-26T14:15:43;98048.03;;;1.47;100.00
21574;BME280;10948;48.706;9.258;2023-01-26T14:18:13;98055.47;;;1.15;100.00
21574;BME280;10948;48.706;9.258;2023-01-26T14:20:43;98052.81;;;1.19;100.00
21574;BME280;10948;48.706;9.258;2023-01-26T14:25:34;98055.53;;;1.12;100.00
21574;BME280;10948;48.706;9.258;2023-01-26T14:28:00;98061.44;;;1.15;100.00
21574;BME280;10948;48.706;9.258;2023-01-26T14:30:26;98060.72;;;1.09;100.00
21574;BME280;10948;48.706;9.258;2023-01-26T14:33:11;98056.88;;;1.31;100.00
21574;BME280;10948;48.706;9.258;2023-01-26T14:35:37;98059.13;;;1.02;100.00